Millry, Alabama
Current Conditions -  °F | °C
As of 1:58 PM on Sunday 21 Dec 2014 (Local Time) from KMEI Reporting Station
Broken Clouds Broken Clouds  
Wind Chill: 53°   Ceiling: 1200
Heat Index: 53°   Visibility: 10mi
Dew Point: 46°   Wind: 3mph
Humidity: 77%   Direction: 50°NE
Pressure: 30.05"   Gusts: NA
Location:  31.63°N, 88.31°W
Report Text: KMEI 211958Z 05003KT 10SM BKN012 12/08 A3005 RMK AO2 SLP177 T01170078
Loading
Personal Weather Stations






























Interactive Weather Map New forecast layout! Learn more

10-Day Weather Forecast

Advertisements
Track Severe Weather on mobile